sensor_id;sensor_type;location;lat;lon;timestamp;P1;durP1;ratioP1;P2;durP2;ratioP2
30613;SDS011;17381;51.690;5.270;2023-02-26T00:02:30;11.82;;;3.55;;
30613;SDS011;17381;51.690;5.270;2023-02-26T00:05:25;8.27;;;3.00;;
30613;SDS011;17381;51.690;5.270;2023-02-26T00:08:24;11.75;;;3.35;;
30613;SDS011;17381;51.690;5.270;2023-02-26T00:11:04;9.27;;;2.63;;
30613;SDS011;17381;51.690;5.270;2023-02-26T00:13:50;6.77;;;2.00;;
30613;SDS011;17381;51.690;5.270;2023-02-26T00:19:09;8.60;;;2.17;;
30613;SDS011;17381;51.690;5.270;2023-02-26T00:21:50;8.85;;;2.08;;
30613;SDS011;17381;51.690;5.270;2023-02-26T00:24:39;8.85;;;2.03;;
30613;SDS011;17381;51.690;5.270;2023-02-26T00:27:24;9.25;;;2.25;;
30613;SDS011;17381;51.690;5.270;2023-02-26T00:30:04;8.55;;;2.00;;
30613;SDS011;17381;51.690;5.270;2023-02-26T00:32:46;8.27;;;2.17;;
30613;SDS011;17381;51.690;5.270;2023-02-26T00:35:59;6.53;;;1.65;;
30613;SDS011;17381;51.690;5.270;2023-02-26T00:39:36;8.20;;;1.77;;
30613;SDS011;17381;51.690;5.270;2023-02-26T00:42:04;6.47;;;1.55;;
30613;SDS011;17381;51.690;5.270;2023-02-26T00:44:46;13.20;;;3.00;;
30613;SDS011;17381;51.690;5.270;2023-02-26T00:47:56;12.25;;;2.20;;
30613;SDS011;17381;51.690;5.270;2023-02-26T00:51:46;14.35;;;1.63;;
30613;SDS011;17381;51.690;5.270;2023-02-26T00:54:28;5.93;;;1.65;;
30613;SDS011;17381;51.690;5.270;2023-02-26T00:57:19;6.78;;;2.40;;
30613;SDS011;17381;51.690;5.270;2023-02-26T01:00:00;6.32;;;1.95;;
30613;SDS011;17381;51.690;5.270;2023-02-26T01:02:48;7.80;;;1.98;;
30613;SDS011;17381;51.690;5.270;2023-02-26T01:05:26;6.05;;;1.63;;
30613;SDS011;17381;51.690;5.270;2023-02-26T01:08:06;8.35;;;1.88;;
30613;SDS011;17381;51.690;5.270;2023-02-26T01:11:10;6.30;;;1.67;;
30613;SDS011;17381;51.690;5.270;2023-02-26T01:14:03;5.72;;;1.77;;
30613;SDS011;17381;51.690;5.270;2023-02-26T01:20:20;8.30;;;1.85;;
30613;SDS011;17381;51.690;5.270;2023-02-26T01:23:40;8.70;;;2.10;;
30613;SDS011;17381;51.690;5.270;2023-02-26T01:26:39;5.97;;;2.15;;
30613;SDS011;17381;51.690;5.270;2023-02-26T01:29:43;5.85;;;1.27;;
30613;SDS011;17381;51.690;5.270;2023-02-26T01:35:50;8.80;;;2.30;;
30613;SDS011;17381;51.690;5.270;2023-02-26T01:38:48;6.80;;;1.63;;
30613;SDS011;17381;51.690;5.270;2023-02-26T01:42:22;6.88;;;2.17;;
30613;SDS011;17381;51.690;5.270;2023-02-26T01:46:07;6.70;;;1.70;;
30613;SDS011;17381;51.690;5.270;2023-02-26T01:48:56;9.98;;;1.83;;
30613;SDS011;17381;51.690;5.270;2023-02-26T01:51:51;8.15;;;1.67;;
30613;SDS011;17381;51.690;5.270;2023-02-26T01:54:49;11.63;;;2.25;;
30613;SDS011;17381;51.690;5.270;2023-02-26T01:57:38;9.18;;;1.65;;
30613;SDS011;17381;51.690;5.270;2023-02-26T02:00:43;5.57;;;1.80;;
30613;SDS011;17381;51.690;5.270;2023-02-26T02:03:41;5.72;;;1.60;;
30613;SDS011;17381;51.690;5.270;2023-02-26T02:06:40;6.40;;;1.60;;
30613;SDS011;17381;51.690;5.270;2023-02-26T02:15:29;7.50;;;1.95;;
30613;SDS011;17381;51.690;5.270;2023-02-26T02:28:50;9.38;;;1.70;;
30613;SDS011;17381;51.690;5.270;2023-02-26T02:32:10;6.50;;;1.42;;
30613;SDS011;17381;51.690;5.270;2023-02-26T02:35:26;7.50;;;1.67;;
30613;SDS011;17381;51.690;5.270;2023-02-26T02:42:16;5.25;;;1.52;;
30613;SDS011;17381;51.690;5.270;2023-02-26T02:48:28;8.38;;;1.35;;
30613;SDS011;17381;51.690;5.270;2023-02-26T02:51:40;5.70;;;1.23;;
30613;SDS011;17381;51.690;5.270;2023-02-26T02:57:45;5.88;;;1.58;;
30613;SDS011;17381;51.690;5.270;2023-02-26T03:00:39;5.07;;;1.33;;
30613;SDS011;17381;51.690;5.270;2023-02-26T03:03:58;8.63;;;1.35;;
30613;SDS011;17381;51.690;5.270;2023-02-26T03:07:14;9.80;;;1.10;;
30613;SDS011;17381;51.690;5.270;2023-02-26T03:10:15;10.60;;;1.60;;
30613;SDS011;17381;51.690;5.270;2023-02-26T03:13:33;7.30;;;1.17;;
30613;SDS011;17381;51.690;5.270;2023-02-26T03:16:36;7.03;;;0.93;;
30613;SDS011;17381;51.690;5.270;2023-02-26T03:19:58;7.72;;;1.33;;
30613;SDS011;17381;51.690;5.270;2023-02-26T03:23:09;6.60;;;1.55;;
30613;SDS011;17381;51.690;5.270;2023-02-26T03:26:25;8.05;;;1.42;;
30613;SDS011;17381;51.690;5.270;2023-02-26T03:33:09;6.25;;;1.30;;
30613;SDS011;17381;51.690;5.270;2023-02-26T03:39:36;8.73;;;1.20;;
30613;SDS011;17381;51.690;5.270;2023-02-26T03:42:38;5.45;;;1.05;;
30613;SDS011;17381;51.690;5.270;2023-02-26T03:45:36;6.22;;;1.15;;
30613;SDS011;17381;51.690;5.270;2023-02-26T03:48:43;6.22;;;1.20;;
30613;SDS011;17381;51.690;5.270;2023-02-26T03:51:43;7.93;;;1.35;;
30613;SDS011;17381;51.690;5.270;2023-02-26T03:55:06;5.28;;;0.80;;
30613;SDS011;17381;51.690;5.270;2023-02-26T03:58:25;8.82;;;1.70;;
30613;SDS011;17381;51.690;5.270;2023-02-26T04:01:42;4.00;;;0.90;;
30613;SDS011;17381;51.690;5.270;2023-02-26T04:08:27;4.70;;;1.05;;
30613;SDS011;17381;51.690;5.270;2023-02-26T04:11:26;4.15;;;1.05;;
30613;SDS011;17381;51.690;5.270;2023-02-26T04:14:29;5.43;;;1.10;;
30613;SDS011;17381;51.690;5.270;2023-02-26T04:17:00;7.43;;;1.65;;
30613;SDS011;17381;51.690;5.270;2023-02-26T04:19:37;6.78;;;1.40;;
30613;SDS011;17381;51.690;5.270;2023-02-26T04:22:19;11.30;;;1.23;;
30613;SDS011;17381;51.690;5.270;2023-02-26T04:25:01;5.43;;;0.88;;
30613;SDS011;17381;51.690;5.270;2023-02-26T04:28:06;3.85;;;1.08;;
30613;SDS011;17381;51.690;5.270;2023-02-26T04:31:17;6.10;;;1.10;;
30613;SDS011;17381;51.690;5.270;2023-02-26T04:33:58;3.08;;;0.98;;
30613;SDS011;17381;51.690;5.270;2023-02-26T04:36:54;10.18;;;1.33;;
30613;SDS011;17381;51.690;5.270;2023-02-26T04:39:43;2.20;;;0.93;;
30613;SDS011;17381;51.690;5.270;2023-02-26T04:42:34;8.20;;;1.70;;
30613;SDS011;17381;51.690;5.270;2023-02-26T04:45:31;4.22;;;1.00;;
30613;SDS011;17381;51.690;5.270;2023-02-26T04:48:09;6.53;;;1.85;;
30613;SDS011;17381;51.690;5.270;2023-02-26T04:50:55;4.50;;;1.55;;
30613;SDS011;17381;51.690;5.270;2023-02-26T04:54:01;5.43;;;1.20;;
30613;SDS011;17381;51.690;5.270;2023-02-26T04:56:54;5.60;;;1.60;;
30613;SDS011;17381;51.690;5.270;2023-02-26T04:59:44;5.30;;;1.38;;
30613;SDS011;17381;51.690;5.270;2023-02-26T05:03:06;6.97;;;1.30;;
30613;SDS011;17381;51.690;5.270;2023-02-26T05:06:05;9.75;;;1.45;;
30613;SDS011;17381;51.690;5.270;2023-02-26T05:09:03;6.80;;;1.00;;
30613;SDS011;17381;51.690;5.270;2023-02-26T05:11:51;6.30;;;1.05;;
30613;SDS011;17381;51.690;5.270;2023-02-26T05:14:34;3.28;;;0.98;;
30613;SDS011;17381;51.690;5.270;2023-02-26T05:17:25;6.65;;;1.77;;
30613;SDS011;17381;51.690;5.270;2023-02-26T05:20:35;4.50;;;0.73;;
30613;SDS011;17381;51.690;5.270;2023-02-26T05:23:43;7.13;;;1.10;;
30613;SDS011;17381;51.690;5.270;2023-02-26T05:26:15;3.40;;;1.00;;
30613;SDS011;17381;51.690;5.270;2023-02-26T05:29:16;3.47;;;1.02;;
30613;SDS011;17381;51.690;5.270;2023-02-26T05:32:17;7.07;;;1.23;;
30613;SDS011;17381;51.690;5.270;2023-02-26T05:35:24;9.80;;;1.15;;
30613;SDS011;17381;51.690;5.270;2023-02-26T05:38:14;4.22;;;1.08;;
30613;SDS011;17381;51.690;5.270;2023-02-26T05:41:10;2.58;;;0.80;;
30613;SDS011;17381;51.690;5.270;2023-02-26T05:44:24;6.32;;;1.17;;
30613;SDS011;17381;51.690;5.270;2023-02-26T05:47:17;6.68;;;1.52;;
30613;SDS011;17381;51.690;5.270;2023-02-26T05:50:07;7.63;;;1.23;;
30613;SDS011;17381;51.690;5.270;2023-02-26T05:53:27;5.85;;;1.02;;
30613;SDS011;17381;51.690;5.270;2023-02-26T05:56:12;4.63;;;1.27;;
30613;SDS011;17381;51.690;5.270;2023-02-26T05:59:11;4.15;;;0.90;;
30613;SDS011;17381;51.690;5.270;2023-02-26T06:01:44;6.40;;;1.13;;
30613;SDS011;17381;51.690;5.270;2023-02-26T06:04:42;4.68;;;1.05;;
30613;SDS011;17381;51.690;5.270;2023-02-26T06:07:57;2.72;;;0.77;;
30613;SDS011;17381;51.690;5.270;2023-02-26T06:11:18;6.18;;;0.98;;
30613;SDS011;17381;51.690;5.270;2023-02-26T06:14:10;6.00;;;0.95;;
30613;SDS011;17381;51.690;5.270;2023-02-26T06:17:15;12.32;;;1.98;;
30613;SDS011;17381;51.690;5.270;2023-02-26T06:19:47;5.60;;;1.10;;
30613;SDS011;17381;51.690;5.270;2023-02-26T06:22:32;6.63;;;1.60;;
30613;SDS011;17381;51.690;5.270;2023-02-26T06:25:40;4.30;;;1.13;;
30613;SDS011;17381;51.690;5.270;2023-02-26T06:28:41;2.45;;;1.00;;
30613;SDS011;17381;51.690;5.270;2023-02-26T06:31:56;5.32;;;1.10;;
30613;SDS011;17381;51.690;5.270;2023-02-26T06:35:00;8.40;;;1.50;;
30613;SDS011;17381;51.690;5.270;2023-02-26T06:37:56;3.22;;;1.05;;
30613;SDS011;17381;51.690;5.270;2023-02-26T06:40:52;2.17;;;0.80;;
30613;SDS011;17381;51.690;5.270;2023-02-26T06:43:44;3.45;;;0.90;;
30613;SDS011;17381;51.690;5.270;2023-02-26T06:46:16;7.15;;;1.10;;
30613;SDS011;17381;51.690;5.270;2023-02-26T06:48:53;8.13;;;1.80;;
30613;SDS011;17381;51.690;5.270;2023-02-26T06:51:52;3.97;;;1.05;;
30613;SDS011;17381;51.690;5.270;2023-02-26T06:54:24;6.20;;;1.48;;
30613;SDS011;17381;51.690;5.270;2023-02-26T06:57:32;6.63;;;1.10;;
30613;SDS011;17381;51.690;5.270;2023-02-26T07:00:35;6.22;;;1.30;;
30613;SDS011;17381;51.690;5.270;2023-02-26T07:03:13;4.68;;;1.10;;
30613;SDS011;17381;51.690;5.270;2023-02-26T07:06:12;7.85;;;1.25;;
30613;SDS011;17381;51.690;5.270;2023-02-26T07:09:00;5.03;;;0.82;;
30613;SDS011;17381;51.690;5.270;2023-02-26T07:11:32;9.88;;;1.00;;
30613;SDS011;17381;51.690;5.270;2023-02-26T07:14:04;4.75;;;1.17;;
30613;SDS011;17381;51.690;5.270;2023-02-26T07:17:20;10.18;;;0.82;;
30613;SDS011;17381;51.690;5.270;2023-02-26T07:20:03;4.05;;;0.93;;
30613;SDS011;17381;51.690;5.270;2023-02-26T07:23:08;4.78;;;1.10;;
30613;SDS011;17381;51.690;5.270;2023-02-26T07:26:00;5.53;;;1.00;;
30613;SDS011;17381;51.690;5.270;2023-02-26T07:28:59;4.25;;;1.33;;
30613;SDS011;17381;51.690;5.270;2023-02-26T07:31:58;6.97;;;1.15;;
30613;SDS011;17381;51.690;5.270;2023-02-26T07:48:42;6.28;;;1.02;;
30613;SDS011;17381;51.690;5.270;2023-02-26T07:52:19;6.00;;;0.90;;
30613;SDS011;17381;51.690;5.270;2023-02-26T07:55:44;4.22;;;0.88;;
30613;SDS011;17381;51.690;5.270;2023-02-26T08:12:35;3.92;;;1.10;;
30613;SDS011;17381;51.690;5.270;2023-02-26T08:16:13;4.35;;;0.90;;
30613;SDS011;17381;51.690;5.270;2023-02-26T08:19:43;4.65;;;1.08;;
30613;SDS011;17381;51.690;5.270;2023-02-26T08:22:59;4.00;;;0.80;;
30613;SDS011;17381;51.690;5.270;2023-02-26T08:29:20;2.63;;;0.77;;
30613;SDS011;17381;51.690;5.270;2023-02-26T08:36:09;5.82;;;0.73;;
30613;SDS011;17381;51.690;5.270;2023-02-26T08:42:46;6.30;;;1.00;;
30613;SDS011;17381;51.690;5.270;2023-02-26T08:46:23;4.15;;;1.10;;
30613;SDS011;17381;51.690;5.270;2023-02-26T09:03:25;6.28;;;1.05;;
30613;SDS011;17381;51.690;5.270;2023-02-26T09:13:34;4.80;;;0.90;;
30613;SDS011;17381;51.690;5.270;2023-02-26T09:16:36;3.05;;;0.80;;
30613;SDS011;17381;51.690;5.270;2023-02-26T09:19:59;3.90;;;0.88;;
30613;SDS011;17381;51.690;5.270;2023-02-26T09:22:40;4.28;;;0.80;;
30613;SDS011;17381;51.690;5.270;2023-02-26T09:26:21;5.28;;;1.17;;
30613;SDS011;17381;51.690;5.270;2023-02-26T09:29:57;6.55;;;0.90;;
30613;SDS011;17381;51.690;5.270;2023-02-26T09:33:15;4.43;;;0.90;;
30613;SDS011;17381;51.690;5.270;2023-02-26T09:40:13;2.97;;;0.85;;
30613;SDS011;17381;51.690;5.270;2023-02-26T09:53:00;3.47;;;0.65;;
30613;SDS011;17381;51.690;5.270;2023-02-26T09:56:03;5.55;;;1.35;;
30613;SDS011;17381;51.690;5.270;2023-02-26T10:12:42;2.80;;;0.73;;
30613;SDS011;17381;51.690;5.270;2023-02-26T11:04:15;3.80;;;0.95;;
30613;SDS011;17381;51.690;5.270;2023-02-26T11:07:35;1.50;;;0.65;;
30613;SDS011;17381;51.690;5.270;2023-02-26T11:10:22;3.25;;;0.50;;
30613;SDS011;17381;51.690;5.270;2023-02-26T11:13:28;2.83;;;0.70;;
30613;SDS011;17381;51.690;5.270;2023-02-26T11:16:18;2.95;;;0.73;;
30613;SDS011;17381;51.690;5.270;2023-02-26T11:18:57;2.25;;;0.60;;
30613;SDS011;17381;51.690;5.270;2023-02-26T11:21:46;4.35;;;0.57;;
30613;SDS011;17381;51.690;5.270;2023-02-26T11:24:21;2.65;;;0.63;;
30613;SDS011;17381;51.690;5.270;2023-02-26T11:27:20;2.30;;;0.60;;
30613;SDS011;17381;51.690;5.270;2023-02-26T11:30:23;1.90;;;0.50;;
30613;SDS011;17381;51.690;5.270;2023-02-26T11:33:22;2.53;;;0.73;;
30613;SDS011;17381;51.690;5.270;2023-02-26T11:36:54;3.25;;;0.60;;
30613;SDS011;17381;51.690;5.270;2023-02-26T11:43:42;3.65;;;0.93;;
30613;SDS011;17381;51.690;5.270;2023-02-26T11:46:31;3.70;;;0.80;;
30613;SDS011;17381;51.690;5.270;2023-02-26T11:49:30;2.53;;;0.60;;
30613;SDS011;17381;51.690;5.270;2023-02-26T11:55:26;3.60;;;0.60;;
30613;SDS011;17381;51.690;5.270;2023-02-26T12:01:15;2.10;;;0.63;;
30613;SDS011;17381;51.690;5.270;2023-02-26T13:20:21;1.83;;;0.52;;
30613;SDS011;17381;51.690;5.270;2023-02-26T13:23:10;2.88;;;0.68;;
30613;SDS011;17381;51.690;5.270;2023-02-26T13:25:52;3.40;;;0.75;;
30613;SDS011;17381;51.690;5.270;2023-02-26T13:28:57;2.85;;;0.63;;
30613;SDS011;17381;51.690;5.270;2023-02-26T13:31:35;4.57;;;0.65;;
30613;SDS011;17381;51.690;5.270;2023-02-26T13:34:49;1.52;;;0.38;;
30613;SDS011;17381;51.690;5.270;2023-02-26T13:37:43;3.15;;;0.88;;
30613;SDS011;17381;51.690;5.270;2023-02-26T13:44:26;1.30;;;0.45;;
30613;SDS011;17381;51.690;5.270;2023-02-26T13:47:51;1.50;;;0.70;;
30613;SDS011;17381;51.690;5.270;2023-02-26T14:17:49;3.20;;;0.90;;
30613;SDS011;17381;51.690;5.270;2023-02-26T14:31:23;0.75;;;0.28;;
30613;SDS011;17381;51.690;5.270;2023-02-26T14:34:27;2.65;;;0.50;;
30613;SDS011;17381;51.690;5.270;2023-02-26T14:40:49;1.52;;;0.47;;
30613;SDS011;17381;51.690;5.270;2023-02-26T14:47:04;3.17;;;0.65;;
30613;SDS011;17381;51.690;5.270;2023-02-26T15:22:25;2.97;;;0.60;;
30613;SDS011;17381;51.690;5.270;2023-02-26T15:25:10;3.58;;;0.50;;
30613;SDS011;17381;51.690;5.270;2023-02-26T15:28:27;2.13;;;0.43;;
30613;SDS011;17381;51.690;5.270;2023-02-26T15:31:01;2.15;;;0.40;;
30613;SDS011;17381;51.690;5.270;2023-02-26T15:33:37;2.42;;;0.40;;
30613;SDS011;17381;51.690;5.270;2023-02-26T15:36:15;2.72;;;0.80;;
30613;SDS011;17381;51.690;5.270;2023-02-26T15:39:00;1.48;;;0.40;;
30613;SDS011;17381;51.690;5.270;2023-02-26T15:41:36;3.05;;;0.65;;
30613;SDS011;17381;51.690;5.270;2023-02-26T15:44:17;2.40;;;0.50;;
30613;SDS011;17381;51.690;5.270;2023-02-26T15:53:53;0.77;;;0.22;;
30613;SDS011;17381;51.690;5.270;2023-02-26T15:57:03;1.55;;;0.55;;
30613;SDS011;17381;51.690;5.270;2023-02-26T16:00:24;5.03;;;1.00;;
30613;SDS011;17381;51.690;5.270;2023-02-26T16:03:08;1.25;;;0.40;;
30613;SDS011;17381;51.690;5.270;2023-02-26T16:05:50;1.60;;;0.57;;
30613;SDS011;17381;51.690;5.270;2023-02-26T16:08:31;1.67;;;0.65;;
30613;SDS011;17381;51.690;5.270;2023-02-26T16:10:58;4.32;;;0.90;;
30613;SDS011;17381;51.690;5.270;2023-02-26T16:13:35;5.38;;;1.30;;
30613;SDS011;17381;51.690;5.270;2023-02-26T16:16:36;2.15;;;0.55;;
30613;SDS011;17381;51.690;5.270;2023-02-26T16:22:06;1.83;;;0.50;;
30613;SDS011;17381;51.690;5.270;2023-02-26T16:27:51;1.45;;;0.40;;
30613;SDS011;17381;51.690;5.270;2023-02-26T16:30:47;1.45;;;0.40;;
30613;SDS011;17381;51.690;5.270;2023-02-26T16:33:22;1.02;;;0.40;;
30613;SDS011;17381;51.690;5.270;2023-02-26T16:46:29;5.05;;;0.70;;
30613;SDS011;17381;51.690;5.270;2023-02-26T17:10:42;1.90;;;0.75;;
30613;SDS011;17381;51.690;5.270;2023-02-26T17:13:29;2.80;;;0.90;;
30613;SDS011;17381;51.690;5.270;2023-02-26T17:16:10;3.45;;;0.68;;
30613;SDS011;17381;51.690;5.270;2023-02-26T17:18:45;2.45;;;1.02;;
30613;SDS011;17381;51.690;5.270;2023-02-26T17:21:56;2.13;;;0.85;;
30613;SDS011;17381;51.690;5.270;2023-02-26T17:24:49;2.47;;;0.77;;
30613;SDS011;17381;51.690;5.270;2023-02-26T17:34:45;2.42;;;0.85;;
30613;SDS011;17381;51.690;5.270;2023-02-26T17:37:21;2.50;;;0.80;;
30613;SDS011;17381;51.690;5.270;2023-02-26T17:40:24;2.47;;;0.70;;
30613;SDS011;17381;51.690;5.270;2023-02-26T17:43:33;1.83;;;0.90;;
30613;SDS011;17381;51.690;5.270;2023-02-26T17:46:04;3.53;;;0.95;;
30613;SDS011;17381;51.690;5.270;2023-02-26T17:48:55;3.17;;;1.35;;
30613;SDS011;17381;51.690;5.270;2023-02-26T17:51:35;4.05;;;1.10;;
30613;SDS011;17381;51.690;5.270;2023-02-26T17:54:05;5.43;;;1.50;;
30613;SDS011;17381;51.690;5.270;2023-02-26T17:56:45;3.15;;;1.48;;
30613;SDS011;17381;51.690;5.270;2023-02-26T17:59:59;3.17;;;1.35;;
30613;SDS011;17381;51.690;5.270;2023-02-26T18:10:11;3.97;;;1.10;;
30613;SDS011;17381;51.690;5.270;2023-02-26T18:13:20;3.67;;;1.20;;
30613;SDS011;17381;51.690;5.270;2023-02-26T18:16:18;4.15;;;1.10;;
30613;SDS011;17381;51.690;5.270;2023-02-26T18:59:47;10.40;;;2.78;;
30613;SDS011;17381;51.690;5.270;2023-02-26T19:02:12;7.25;;;2.38;;
30613;SDS011;17381;51.690;5.270;2023-02-26T19:05:11;7.00;;;2.10;;
30613;SDS011;17381;51.690;5.270;2023-02-26T19:07:38;9.20;;;2.17;;
30613;SDS011;17381;51.690;5.270;2023-02-26T19:10:36;7.53;;;2.13;;
30613;SDS011;17381;51.690;5.270;2023-02-26T19:13:36;5.93;;;1.75;;
30613;SDS011;17381;51.690;5.270;2023-02-26T19:20:15;11.07;;;2.45;;
30613;SDS011;17381;51.690;5.270;2023-02-26T19:23:32;8.98;;;2.65;;
30613;SDS011;17381;51.690;5.270;2023-02-26T19:26:31;4.75;;;1.60;;
30613;SDS011;17381;51.690;5.270;2023-02-26T19:29:36;6.88;;;1.48;;
30613;SDS011;17381;51.690;5.270;2023-02-26T19:32:53;5.32;;;1.45;;
30613;SDS011;17381;51.690;5.270;2023-02-26T19:35:24;12.52;;;1.98;;
30613;SDS011;17381;51.690;5.270;2023-02-26T19:38:07;6.32;;;1.80;;
30613;SDS011;17381;51.690;5.270;2023-02-26T19:40:54;4.45;;;1.40;;
30613;SDS011;17381;51.690;5.270;2023-02-26T19:44:05;6.32;;;1.42;;
30613;SDS011;17381;51.690;5.270;2023-02-26T19:46:56;6.88;;;2.30;;
30613;SDS011;17381;51.690;5.270;2023-02-26T19:49:57;6.05;;;2.30;;
30613;SDS011;17381;51.690;5.270;2023-02-26T19:52:38;6.35;;;2.25;;
30613;SDS011;17381;51.690;5.270;2023-02-26T19:55:31;7.43;;;1.63;;
30613;SDS011;17381;51.690;5.270;2023-02-26T19:58:29;6.65;;;1.95;;
30613;SDS011;17381;51.690;5.270;2023-02-26T20:01:16;6.68;;;1.85;;
30613;SDS011;17381;51.690;5.270;2023-02-26T20:04:11;6.72;;;1.70;;
30613;SDS011;17381;51.690;5.270;2023-02-26T20:07:00;6.28;;;2.22;;
30613;SDS011;17381;51.690;5.270;2023-02-26T20:09:51;4.65;;;1.25;;
30613;SDS011;17381;51.690;5.270;2023-02-26T20:12:53;6.32;;;1.40;;
30613;SDS011;17381;51.690;5.270;2023-02-26T20:15:44;7.28;;;1.42;;
30613;SDS011;17381;51.690;5.270;2023-02-26T20:18:19;9.02;;;1.33;;
30613;SDS011;17381;51.690;5.270;2023-02-26T20:21:01;4.40;;;1.23;;
30613;SDS011;17381;51.690;5.270;2023-02-26T20:23:40;5.05;;;1.30;;
30613;SDS011;17381;51.690;5.270;2023-02-26T20:26:29;5.55;;;2.00;;
30613;SDS011;17381;51.690;5.270;2023-02-26T20:29:22;8.13;;;2.22;;
30613;SDS011;17381;51.690;5.270;2023-02-26T20:32:36;6.50;;;1.85;;
30613;SDS011;17381;51.690;5.270;2023-02-26T20:35:43;6.10;;;1.50;;
30613;SDS011;17381;51.690;5.270;2023-02-26T20:38:50;5.00;;;1.80;;
30613;SDS011;17381;51.690;5.270;2023-02-26T20:42:01;6.75;;;2.20;;
30613;SDS011;17381;51.690;5.270;2023-02-26T20:44:52;9.93;;;2.33;;
30613;SDS011;17381;51.690;5.270;2023-02-26T20:51:35;6.35;;;1.75;;
30613;SDS011;17381;51.690;5.270;2023-02-26T20:54:32;5.97;;;1.50;;
30613;SDS011;17381;51.690;5.270;2023-02-26T20:57:13;6.10;;;1.45;;
30613;SDS011;17381;51.690;5.270;2023-02-26T21:00:23;5.95;;;1.88;;
30613;SDS011;17381;51.690;5.270;2023-02-26T21:03:49;10.48;;;1.50;;
30613;SDS011;17381;51.690;5.270;2023-02-26T21:06:50;4.78;;;1.10;;
30613;SDS011;17381;51.690;5.270;2023-02-26T21:09:48;4.03;;;1.48;;
30613;SDS011;17381;51.690;5.270;2023-02-26T21:12:40;3.13;;;1.15;;
30613;SDS011;17381;51.690;5.270;2023-02-26T21:15:32;13.65;;;2.53;;
30613;SDS011;17381;51.690;5.270;2023-02-26T21:18:46;4.45;;;1.20;;
30613;SDS011;17381;51.690;5.270;2023-02-26T21:21:25;4.82;;;1.30;;
30613;SDS011;17381;51.690;5.270;2023-02-26T21:24:17;5.47;;;1.75;;
30613;SDS011;17381;51.690;5.270;2023-02-26T21:27:22;6.50;;;1.83;;
30613;SDS011;17381;51.690;5.270;2023-02-26T21:30:21;12.57;;;3.20;;
30613;SDS011;17381;51.690;5.270;2023-02-26T21:33:00;6.57;;;1.95;;
30613;SDS011;17381;51.690;5.270;2023-02-26T21:35:48;8.57;;;1.63;;
30613;SDS011;17381;51.690;5.270;2023-02-26T21:38:56;3.90;;;1.15;;
30613;SDS011;17381;51.690;5.270;2023-02-26T21:41:52;5.10;;;1.20;;
30613;SDS011;17381;51.690;5.270;2023-02-26T21:44:38;3.60;;;1.30;;
30613;SDS011;17381;51.690;5.270;2023-02-26T21:47:43;3.63;;;1.52;;
30613;SDS011;17381;51.690;5.270;2023-02-26T21:50:47;5.05;;;1.38;;
30613;SDS011;17381;51.690;5.270;2023-02-26T21:53:31;7.88;;;2.20;;
30613;SDS011;17381;51.690;5.270;2023-02-26T21:56:41;5.18;;;1.40;;
30613;SDS011;17381;51.690;5.270;2023-02-26T21:59:37;6.97;;;1.42;;
30613;SDS011;17381;51.690;5.270;2023-02-26T22:02:39;6.88;;;1.63;;
30613;SDS011;17381;51.690;5.270;2023-02-26T22:05:34;5.45;;;1.60;;
30613;SDS011;17381;51.690;5.270;2023-02-26T22:11:35;5.85;;;1.17;;
30613;SDS011;17381;51.690;5.270;2023-02-26T22:14:22;7.13;;;1.63;;
30613;SDS011;17381;51.690;5.270;2023-02-26T22:17:03;5.82;;;1.50;;
30613;SDS011;17381;51.690;5.270;2023-02-26T22:20:04;6.28;;;1.10;;
30613;SDS011;17381;51.690;5.270;2023-02-26T22:22:46;5.15;;;1.20;;
30613;SDS011;17381;51.690;5.270;2023-02-26T22:25:51;6.63;;;1.30;;
30613;SDS011;17381;51.690;5.270;2023-02-26T22:28:52;8.45;;;1.83;;
30613;SDS011;17381;51.690;5.270;2023-02-26T22:31:45;9.50;;;1.60;;
30613;SDS011;17381;51.690;5.270;2023-02-26T22:34:44;8.05;;;1.65;;
30613;SDS011;17381;51.690;5.270;2023-02-26T22:37:26;5.85;;;1.60;;
30613;SDS011;17381;51.690;5.270;2023-02-26T22:40:29;4.68;;;1.40;;
30613;SDS011;17381;51.690;5.270;2023-02-26T22:43:13;4.15;;;1.00;;
30613;SDS011;17381;51.690;5.270;2023-02-26T22:45:57;6.82;;;1.63;;
30613;SDS011;17381;51.690;5.270;2023-02-26T22:48:48;2.38;;;1.00;;
30613;SDS011;17381;51.690;5.270;2023-02-26T22:51:34;4.40;;;0.95;;
30613;SDS011;17381;51.690;5.270;2023-02-26T22:54:46;5.55;;;1.90;;
30613;SDS011;17381;51.690;5.270;2023-02-26T22:57:42;4.57;;;1.58;;
30613;SDS011;17381;51.690;5.270;2023-02-26T23:00:47;5.88;;;1.30;;
30613;SDS011;17381;51.690;5.270;2023-02-26T23:04:06;5.53;;;1.13;;
30613;SDS011;17381;51.690;5.270;2023-02-26T23:06:51;7.05;;;1.05;;
30613;SDS011;17381;51.690;5.270;2023-02-26T23:09:23;5.13;;;1.65;;
30613;SDS011;17381;51.690;5.270;2023-02-26T23:12:22;4.82;;;1.10;;
30613;SDS011;17381;51.690;5.270;2023-02-26T23:15:18;5.57;;;1.27;;
30613;SDS011;17381;51.690;5.270;2023-02-26T23:18:33;5.28;;;1.30;;
30613;SDS011;17381;51.690;5.270;2023-02-26T23:21:20;3.78;;;0.98;;
30613;SDS011;17381;51.690;5.270;2023-02-26T23:23:56;5.75;;;1.65;;
30613;SDS011;17381;51.690;5.270;2023-02-26T23:26:49;5.25;;;1.00;;
30613;SDS011;17381;51.690;5.270;2023-02-26T23:30:00;3.03;;;0.80;;
30613;SDS011;17381;51.690;5.270;2023-02-26T23:32:47;3.70;;;1.20;;
30613;SDS011;17381;51.690;5.270;2023-02-26T23:35:56;4.10;;;1.27;;
30613;SDS011;17381;51.690;5.270;2023-02-26T23:38:42;5.30;;;1.33;;
30613;SDS011;17381;51.690;5.270;2023-02-26T23:41:39;2.72;;;0.90;;
30613;SDS011;17381;51.690;5.270;2023-02-26T23:44:37;3.05;;;1.23;;
30613;SDS011;17381;51.690;5.270;2023-02-26T23:47:30;4.45;;;1.02;;
30613;SDS011;17381;51.690;5.270;2023-02-26T23:50:15;3.67;;;1.00;;
30613;SDS011;17381;51.690;5.270;2023-02-26T23:53:17;3.75;;;1.20;;
30613;SDS011;17381;51.690;5.270;2023-02-26T23:56:13;4.18;;;1.25;;
30613;SDS011;17381;51.690;5.270;2023-02-26T23:58:58;4.68;;;1.38;;
